sensor_id;sensor_type;location;lat;lon;timestamp;P1;durP1;ratioP1;P2;durP2;ratioP2
2039;SDS011;1025;42.686;23.350;2023-06-24T00:01:29;9.53;;;8.83;;
2039;SDS011;1025;42.686;23.350;2023-06-24T00:03:56;10.53;;;9.60;;
2039;SDS011;1025;42.686;23.350;2023-06-24T00:06:23;10.57;;;9.77;;
2039;SDS011;1025;42.686;23.350;2023-06-24T00:08:51;9.73;;;8.93;;
2039;SDS011;1025;42.686;23.350;2023-06-24T00:11:25;9.70;;;8.90;;
2039;SDS011;1025;42.686;23.350;2023-06-24T00:13:51;10.37;;;9.40;;
2039;SDS011;1025;42.686;23.350;2023-06-24T00:16:18;10.13;;;9.33;;
2039;SDS011;1025;42.686;23.350;2023-06-24T00:18:52;10.13;;;9.33;;
2039;SDS011;1025;42.686;23.350;2023-06-24T00:21:19;10.07;;;9.37;;
2039;SDS011;1025;42.686;23.350;2023-06-24T00:23:46;10.70;;;10.00;;
2039;SDS011;1025;42.686;23.350;2023-06-24T00:26:14;10.07;;;9.03;;
2039;SDS011;1025;42.686;23.350;2023-06-24T00:28:41;9.07;;;8.37;;
2039;SDS011;1025;42.686;23.350;2023-06-24T00:31:08;10.93;;;9.83;;
2039;SDS011;1025;42.686;23.350;2023-06-24T00:33:34;10.40;;;9.50;;
2039;SDS011;1025;42.686;23.350;2023-06-24T00:36:02;9.20;;;8.50;;
2039;SDS011;1025;42.686;23.350;2023-06-24T00:38:29;10.93;;;9.93;;
2039;SDS011;1025;42.686;23.350;2023-06-24T00:40:57;10.77;;;9.77;;
2039;SDS011;1025;42.686;23.350;2023-06-24T00:43:23;9.50;;;8.70;;
2039;SDS011;1025;42.686;23.350;2023-06-24T00:45:50;9.93;;;9.17;;
2039;SDS011;1025;42.686;23.350;2023-06-24T00:48:18;11.20;;;10.20;;
2039;SDS011;1025;42.686;23.350;2023-06-24T00:50:45;10.10;;;9.40;;
2039;SDS011;1025;42.686;23.350;2023-06-24T00:53:13;9.20;;;8.57;;
2039;SDS011;1025;42.686;23.350;2023-06-24T00:55:40;11.23;;;9.83;;
2039;SDS011;1025;42.686;23.350;2023-06-24T00:58:06;9.83;;;9.10;;
2039;SDS011;1025;42.686;23.350;2023-06-24T01:00:33;11.73;;;9.53;;
2039;SDS011;1025;42.686;23.350;2023-06-24T01:03:00;10.33;;;9.57;;
2039;SDS011;1025;42.686;23.350;2023-06-24T01:05:26;10.53;;;9.73;;
2039;SDS011;1025;42.686;23.350;2023-06-24T01:07:54;9.63;;;8.83;;
2039;SDS011;1025;42.686;23.350;2023-06-24T01:10:23;11.43;;;10.43;;
2039;SDS011;1025;42.686;23.350;2023-06-24T01:12:50;10.00;;;9.20;;
2039;SDS011;1025;42.686;23.350;2023-06-24T01:15:17;10.17;;;9.37;;
2039;SDS011;1025;42.686;23.350;2023-06-24T01:17:47;10.43;;;9.10;;
2039;SDS011;1025;42.686;23.350;2023-06-24T01:20:16;11.53;;;10.40;;
2039;SDS011;1025;42.686;23.350;2023-06-24T01:22:48;10.20;;;9.40;;
2039;SDS011;1025;42.686;23.350;2023-06-24T01:25:23;9.90;;;9.10;;
2039;SDS011;1025;42.686;23.350;2023-06-24T01:28:07;11.50;;;10.60;;
2039;SDS011;1025;42.686;23.350;2023-06-24T01:30:41;12.17;;;11.17;;
2039;SDS011;1025;42.686;23.350;2023-06-24T01:33:18;12.27;;;11.17;;
2039;SDS011;1025;42.686;23.350;2023-06-24T01:35:46;10.83;;;10.00;;
2039;SDS011;1025;42.686;23.350;2023-06-24T01:38:15;11.60;;;10.70;;
2039;SDS011;1025;42.686;23.350;2023-06-24T01:40:46;10.53;;;9.63;;
2039;SDS011;1025;42.686;23.350;2023-06-24T01:43:13;10.77;;;9.97;;
2039;SDS011;1025;42.686;23.350;2023-06-24T01:45:41;11.37;;;10.37;;
2039;SDS011;1025;42.686;23.350;2023-06-24T01:48:09;12.00;;;11.00;;
2039;SDS011;1025;42.686;23.350;2023-06-24T01:50:39;11.03;;;10.03;;
2039;SDS011;1025;42.686;23.350;2023-06-24T01:53:07;11.40;;;10.43;;
2039;SDS011;1025;42.686;23.350;2023-06-24T01:55:34;12.30;;;11.17;;
2039;SDS011;1025;42.686;23.350;2023-06-24T01:58:03;11.87;;;11.03;;
2039;SDS011;1025;42.686;23.350;2023-06-24T02:00:32;11.70;;;10.80;;
2039;SDS011;1025;42.686;23.350;2023-06-24T02:02:58;12.10;;;11.10;;
2039;SDS011;1025;42.686;23.350;2023-06-24T02:05:25;12.80;;;11.60;;
2039;SDS011;1025;42.686;23.350;2023-06-24T02:07:53;13.50;;;11.80;;
2039;SDS011;1025;42.686;23.350;2023-06-24T02:10:20;12.20;;;11.20;;
2039;SDS011;1025;42.686;23.350;2023-06-24T02:12:47;12.43;;;11.20;;
2039;SDS011;1025;42.686;23.350;2023-06-24T02:15:14;11.83;;;10.63;;
2039;SDS011;1025;42.686;23.350;2023-06-24T02:17:41;11.80;;;10.90;;
2039;SDS011;1025;42.686;23.350;2023-06-24T02:20:08;12.63;;;11.40;;
2039;SDS011;1025;42.686;23.350;2023-06-24T02:22:35;12.23;;;11.20;;
2039;SDS011;1025;42.686;23.350;2023-06-24T02:25:06;14.63;;;11.60;;
2039;SDS011;1025;42.686;23.350;2023-06-24T02:27:33;13.07;;;12.07;;
2039;SDS011;1025;42.686;23.350;2023-06-24T02:30:00;13.77;;;12.57;;
2039;SDS011;1025;42.686;23.350;2023-06-24T02:32:27;13.87;;;12.23;;
2039;SDS011;1025;42.686;23.350;2023-06-24T02:34:54;15.67;;;13.17;;
2039;SDS011;1025;42.686;23.350;2023-06-24T02:37:20;14.70;;;13.27;;
2039;SDS011;1025;42.686;23.350;2023-06-24T02:39:47;13.70;;;12.47;;
2039;SDS011;1025;42.686;23.350;2023-06-24T02:42:14;13.70;;;12.50;;
2039;SDS011;1025;42.686;23.350;2023-06-24T02:44:41;13.10;;;11.90;;
2039;SDS011;1025;42.686;23.350;2023-06-24T02:47:09;13.63;;;12.53;;
2039;SDS011;1025;42.686;23.350;2023-06-24T02:49:36;15.80;;;14.33;;
2039;SDS011;1025;42.686;23.350;2023-06-24T02:52:03;15.80;;;14.30;;
2039;SDS011;1025;42.686;23.350;2023-06-24T02:54:30;15.80;;;14.00;;
2039;SDS011;1025;42.686;23.350;2023-06-24T02:56:56;16.23;;;14.77;;
2039;SDS011;1025;42.686;23.350;2023-06-24T02:59:25;16.67;;;15.20;;
2039;SDS011;1025;42.686;23.350;2023-06-24T03:01:51;18.57;;;16.97;;
2039;SDS011;1025;42.686;23.350;2023-06-24T03:04:19;17.00;;;15.40;;
2039;SDS011;1025;42.686;23.350;2023-06-24T03:06:46;15.63;;;14.03;;
2039;SDS011;1025;42.686;23.350;2023-06-24T03:09:14;16.57;;;14.87;;
2039;SDS011;1025;42.686;23.350;2023-06-24T03:11:41;16.70;;;15.07;;
2039;SDS011;1025;42.686;23.350;2023-06-24T03:14:08;16.37;;;14.87;;
2039;SDS011;1025;42.686;23.350;2023-06-24T03:16:36;15.27;;;13.97;;
2039;SDS011;1025;42.686;23.350;2023-06-24T03:19:03;22.23;;;14.87;;
2039;SDS011;1025;42.686;23.350;2023-06-24T03:21:30;17.13;;;15.43;;
2039;SDS011;1025;42.686;23.350;2023-06-24T03:23:57;14.67;;;13.27;;
2039;SDS011;1025;42.686;23.350;2023-06-24T03:26:31;16.10;;;14.47;;
2039;SDS011;1025;42.686;23.350;2023-06-24T03:29:02;14.50;;;13.30;;
2039;SDS011;1025;42.686;23.350;2023-06-24T03:31:32;16.17;;;14.77;;
2039;SDS011;1025;42.686;23.350;2023-06-24T03:34:01;16.77;;;15.27;;
2039;SDS011;1025;42.686;23.350;2023-06-24T03:36:27;16.63;;;14.77;;
2039;SDS011;1025;42.686;23.350;2023-06-24T03:38:54;16.07;;;14.47;;
2039;SDS011;1025;42.686;23.350;2023-06-24T03:41:20;21.10;;;14.43;;
2039;SDS011;1025;42.686;23.350;2023-06-24T03:43:48;15.00;;;13.60;;
2039;SDS011;1025;42.686;23.350;2023-06-24T03:46:14;14.90;;;13.33;;
2039;SDS011;1025;42.686;23.350;2023-06-24T03:48:41;14.60;;;13.37;;
2039;SDS011;1025;42.686;23.350;2023-06-24T03:51:09;15.77;;;14.13;;
2039;SDS011;1025;42.686;23.350;2023-06-24T03:53:35;14.93;;;13.63;;
2039;SDS011;1025;42.686;23.350;2023-06-24T03:56:02;17.53;;;14.33;;
2039;SDS011;1025;42.686;23.350;2023-06-24T03:58:28;14.93;;;13.43;;
2039;SDS011;1025;42.686;23.350;2023-06-24T04:00:55;14.07;;;12.73;;
2039;SDS011;1025;42.686;23.350;2023-06-24T04:03:23;21.50;;;14.63;;
2039;SDS011;1025;42.686;23.350;2023-06-24T04:05:51;19.13;;;17.27;;
2039;SDS011;1025;42.686;23.350;2023-06-24T04:08:23;22.30;;;14.77;;
2039;SDS011;1025;42.686;23.350;2023-06-24T04:10:54;15.23;;;13.70;;
2039;SDS011;1025;42.686;23.350;2023-06-24T04:13:20;15.27;;;13.83;;
2039;SDS011;1025;42.686;23.350;2023-06-24T04:15:47;14.70;;;13.60;;
2039;SDS011;1025;42.686;23.350;2023-06-24T04:18:13;14.20;;;12.77;;
2039;SDS011;1025;42.686;23.350;2023-06-24T04:20:40;14.80;;;13.50;;
2039;SDS011;1025;42.686;23.350;2023-06-24T04:23:07;14.50;;;13.10;;
2039;SDS011;1025;42.686;23.350;2023-06-24T04:25:37;16.50;;;13.60;;
2039;SDS011;1025;42.686;23.350;2023-06-24T04:28:03;14.17;;;12.90;;
2039;SDS011;1025;42.686;23.350;2023-06-24T04:30:31;15.20;;;12.80;;
2039;SDS011;1025;42.686;23.350;2023-06-24T04:33:00;13.70;;;12.50;;
2039;SDS011;1025;42.686;23.350;2023-06-24T04:35:26;17.83;;;13.57;;
2039;SDS011;1025;42.686;23.350;2023-06-24T04:37:53;13.63;;;12.43;;
2039;SDS011;1025;42.686;23.350;2023-06-24T04:40:20;13.57;;;12.37;;
2039;SDS011;1025;42.686;23.350;2023-06-24T04:42:48;15.20;;;13.80;;
2039;SDS011;1025;42.686;23.350;2023-06-24T04:45:14;20.90;;;15.67;;
2039;SDS011;1025;42.686;23.350;2023-06-24T04:47:41;14.70;;;13.30;;
2039;SDS011;1025;42.686;23.350;2023-06-24T04:50:08;14.77;;;13.40;;
2039;SDS011;1025;42.686;23.350;2023-06-24T04:52:35;14.23;;;12.93;;
2039;SDS011;1025;42.686;23.350;2023-06-24T04:55:02;14.80;;;13.63;;
2039;SDS011;1025;42.686;23.350;2023-06-24T04:57:29;15.37;;;14.07;;
2039;SDS011;1025;42.686;23.350;2023-06-24T04:59:58;14.27;;;13.10;;
2039;SDS011;1025;42.686;23.350;2023-06-24T05:02:24;16.10;;;13.50;;
2039;SDS011;1025;42.686;23.350;2023-06-24T05:04:51;15.37;;;13.93;;
2039;SDS011;1025;42.686;23.350;2023-06-24T05:07:18;15.23;;;14.00;;
2039;SDS011;1025;42.686;23.350;2023-06-24T05:09:45;12.87;;;11.60;;
2039;SDS011;1025;42.686;23.350;2023-06-24T05:12:12;15.47;;;13.90;;
2039;SDS011;1025;42.686;23.350;2023-06-24T05:14:39;17.67;;;14.40;;
2039;SDS011;1025;42.686;23.350;2023-06-24T05:17:06;14.67;;;13.13;;
2039;SDS011;1025;42.686;23.350;2023-06-24T05:19:33;14.03;;;12.83;;
2039;SDS011;1025;42.686;23.350;2023-06-24T05:21:59;13.17;;;11.97;;
2039;SDS011;1025;42.686;23.350;2023-06-24T05:24:26;11.10;;;10.20;;
2039;SDS011;1025;42.686;23.350;2023-06-24T05:26:52;15.83;;;13.03;;
2039;SDS011;1025;42.686;23.350;2023-06-24T05:29:19;14.90;;;13.40;;
2039;SDS011;1025;42.686;23.350;2023-06-24T05:31:46;12.97;;;11.87;;
2039;SDS011;1025;42.686;23.350;2023-06-24T05:34:14;13.60;;;12.20;;
2039;SDS011;1025;42.686;23.350;2023-06-24T05:36:40;11.37;;;10.47;;
2039;SDS011;1025;42.686;23.350;2023-06-24T05:39:07;11.20;;;10.30;;
2039;SDS011;1025;42.686;23.350;2023-06-24T05:41:35;10.77;;;9.87;;
2039;SDS011;1025;42.686;23.350;2023-06-24T05:44:01;11.67;;;10.23;;
2039;SDS011;1025;42.686;23.350;2023-06-24T05:46:28;11.40;;;10.17;;
2039;SDS011;1025;42.686;23.350;2023-06-24T05:48:55;12.43;;;11.43;;
2039;SDS011;1025;42.686;23.350;2023-06-24T05:51:23;15.33;;;12.83;;
2039;SDS011;1025;42.686;23.350;2023-06-24T05:53:49;17.17;;;12.97;;
2039;SDS011;1025;42.686;23.350;2023-06-24T05:56:16;13.60;;;12.40;;
2039;SDS011;1025;42.686;23.350;2023-06-24T05:58:42;13.10;;;11.90;;
2039;SDS011;1025;42.686;23.350;2023-06-24T06:01:09;15.27;;;13.93;;
2039;SDS011;1025;42.686;23.350;2023-06-24T06:03:36;13.43;;;11.43;;
2039;SDS011;1025;42.686;23.350;2023-06-24T06:06:02;13.30;;;12.10;;
2039;SDS011;1025;42.686;23.350;2023-06-24T06:08:30;12.57;;;11.40;;
2039;SDS011;1025;42.686;23.350;2023-06-24T06:10:57;12.77;;;11.87;;
2039;SDS011;1025;42.686;23.350;2023-06-24T06:13:24;12.83;;;11.47;;
2039;SDS011;1025;42.686;23.350;2023-06-24T06:15:50;13.43;;;12.23;;
2039;SDS011;1025;42.686;23.350;2023-06-24T06:18:17;12.77;;;11.53;;
2039;SDS011;1025;42.686;23.350;2023-06-24T06:20:43;11.93;;;10.80;;
2039;SDS011;1025;42.686;23.350;2023-06-24T06:23:10;13.20;;;12.00;;
2039;SDS011;1025;42.686;23.350;2023-06-24T06:25:38;13.10;;;11.97;;
2039;SDS011;1025;42.686;23.350;2023-06-24T06:28:04;11.20;;;10.27;;
2039;SDS011;1025;42.686;23.350;2023-06-24T06:30:31;10.37;;;9.63;;
2039;SDS011;1025;42.686;23.350;2023-06-24T06:32:57;11.10;;;10.30;;
2039;SDS011;1025;42.686;23.350;2023-06-24T06:35:24;9.93;;;8.93;;
2039;SDS011;1025;42.686;23.350;2023-06-24T06:37:50;10.40;;;9.60;;
2039;SDS011;1025;42.686;23.350;2023-06-24T06:40:19;9.80;;;9.13;;
2039;SDS011;1025;42.686;23.350;2023-06-24T06:42:47;11.30;;;10.27;;
2039;SDS011;1025;42.686;23.350;2023-06-24T06:45:14;11.50;;;10.37;;
2039;SDS011;1025;42.686;23.350;2023-06-24T06:47:40;12.03;;;11.10;;
2039;SDS011;1025;42.686;23.350;2023-06-24T06:50:07;11.27;;;10.47;;
2039;SDS011;1025;42.686;23.350;2023-06-24T06:52:34;12.40;;;11.20;;
2039;SDS011;1025;42.686;23.350;2023-06-24T06:55:00;12.07;;;11.03;;
2039;SDS011;1025;42.686;23.350;2023-06-24T06:57:27;11.13;;;10.00;;
2039;SDS011;1025;42.686;23.350;2023-06-24T06:59:55;12.40;;;11.37;;
2039;SDS011;1025;42.686;23.350;2023-06-24T07:02:22;10.87;;;9.87;;
2039;SDS011;1025;42.686;23.350;2023-06-24T07:04:48;10.10;;;9.40;;
2039;SDS011;1025;42.686;23.350;2023-06-24T07:07:16;11.83;;;10.53;;
2039;SDS011;1025;42.686;23.350;2023-06-24T07:09:42;11.67;;;10.50;;
2039;SDS011;1025;42.686;23.350;2023-06-24T07:12:11;11.27;;;10.27;;
2039;SDS011;1025;42.686;23.350;2023-06-24T07:14:38;11.17;;;10.03;;
2039;SDS011;1025;42.686;23.350;2023-06-24T07:17:07;13.03;;;11.27;;
2039;SDS011;1025;42.686;23.350;2023-06-24T07:19:33;10.83;;;9.90;;
2039;SDS011;1025;42.686;23.350;2023-06-24T07:22:00;12.50;;;11.43;;
2039;SDS011;1025;42.686;23.350;2023-06-24T07:24:26;11.70;;;10.80;;
2039;SDS011;1025;42.686;23.350;2023-06-24T07:26:53;11.60;;;10.70;;
2039;SDS011;1025;42.686;23.350;2023-06-24T07:29:20;13.90;;;12.80;;
2039;SDS011;1025;42.686;23.350;2023-06-24T07:31:47;11.17;;;10.07;;
2039;SDS011;1025;42.686;23.350;2023-06-24T07:34:15;10.40;;;9.70;;
2039;SDS011;1025;42.686;23.350;2023-06-24T07:36:41;11.93;;;10.97;;
2039;SDS011;1025;42.686;23.350;2023-06-24T07:39:08;10.93;;;9.83;;
2039;SDS011;1025;42.686;23.350;2023-06-24T07:41:34;10.60;;;9.50;;
2039;SDS011;1025;42.686;23.350;2023-06-24T07:44:01;9.70;;;9.10;;
2039;SDS011;1025;42.686;23.350;2023-06-24T07:46:27;10.27;;;9.37;;
2039;SDS011;1025;42.686;23.350;2023-06-24T07:48:55;10.60;;;9.80;;
2039;SDS011;1025;42.686;23.350;2023-06-24T07:51:23;10.13;;;9.43;;
2039;SDS011;1025;42.686;23.350;2023-06-24T07:53:49;10.43;;;8.87;;
2039;SDS011;1025;42.686;23.350;2023-06-24T07:56:16;9.83;;;9.20;;
2039;SDS011;1025;42.686;23.350;2023-06-24T07:58:42;10.57;;;9.77;;
2039;SDS011;1025;42.686;23.350;2023-06-24T08:01:09;11.23;;;10.40;;
2039;SDS011;1025;42.686;23.350;2023-06-24T08:03:35;9.83;;;9.07;;
2039;SDS011;1025;42.686;23.350;2023-06-24T08:06:02;11.87;;;10.87;;
2039;SDS011;1025;42.686;23.350;2023-06-24T08:08:30;11.03;;;10.33;;
2039;SDS011;1025;42.686;23.350;2023-06-24T08:10:56;11.00;;;9.90;;
2039;SDS011;1025;42.686;23.350;2023-06-24T08:13:23;10.87;;;9.83;;
2039;SDS011;1025;42.686;23.350;2023-06-24T08:15:49;11.97;;;10.60;;
2039;SDS011;1025;42.686;23.350;2023-06-24T08:18:16;11.00;;;10.10;;
2039;SDS011;1025;42.686;23.350;2023-06-24T08:20:42;11.00;;;10.20;;
2039;SDS011;1025;42.686;23.350;2023-06-24T08:23:09;10.40;;;9.60;;
2039;SDS011;1025;42.686;23.350;2023-06-24T08:25:37;10.83;;;9.83;;
2039;SDS011;1025;42.686;23.350;2023-06-24T08:28:03;10.90;;;10.00;;
2039;SDS011;1025;42.686;23.350;2023-06-24T08:30:30;10.30;;;9.57;;
2039;SDS011;1025;42.686;23.350;2023-06-24T08:32:57;10.43;;;9.70;;
2039;SDS011;1025;42.686;23.350;2023-06-24T08:35:23;10.93;;;10.07;;
2039;SDS011;1025;42.686;23.350;2023-06-24T08:37:50;10.93;;;10.10;;
2039;SDS011;1025;42.686;23.350;2023-06-24T08:40:16;9.83;;;9.00;;
2039;SDS011;1025;42.686;23.350;2023-06-24T08:42:45;10.60;;;9.63;;
2039;SDS011;1025;42.686;23.350;2023-06-24T08:45:11;10.97;;;9.87;;
2039;SDS011;1025;42.686;23.350;2023-06-24T08:47:38;10.73;;;9.70;;
2039;SDS011;1025;42.686;23.350;2023-06-24T08:50:07;11.43;;;10.37;;
2039;SDS011;1025;42.686;23.350;2023-06-24T08:52:35;10.67;;;9.77;;
2039;SDS011;1025;42.686;23.350;2023-06-24T08:55:02;11.03;;;10.23;;
2039;SDS011;1025;42.686;23.350;2023-06-24T08:57:28;9.60;;;8.90;;
2039;SDS011;1025;42.686;23.350;2023-06-24T08:59:56;10.00;;;9.27;;
2039;SDS011;1025;42.686;23.350;2023-06-24T09:02:23;10.20;;;9.30;;
2039;SDS011;1025;42.686;23.350;2023-06-24T09:04:50;11.83;;;10.73;;
2039;SDS011;1025;42.686;23.350;2023-06-24T09:07:23;11.20;;;10.30;;
2039;SDS011;1025;42.686;23.350;2023-06-24T09:09:51;11.00;;;9.87;;
2039;SDS011;1025;42.686;23.350;2023-06-24T09:12:18;9.97;;;9.27;;
2039;SDS011;1025;42.686;23.350;2023-06-24T09:14:47;11.00;;;9.90;;
2039;SDS011;1025;42.686;23.350;2023-06-24T09:17:16;9.30;;;8.70;;
2039;SDS011;1025;42.686;23.350;2023-06-24T09:19:42;9.70;;;8.80;;
2039;SDS011;1025;42.686;23.350;2023-06-24T09:22:09;10.73;;;9.77;;
2039;SDS011;1025;42.686;23.350;2023-06-24T09:24:41;10.60;;;9.90;;
2039;SDS011;1025;42.686;23.350;2023-06-24T09:27:08;12.10;;;11.20;;
2039;SDS011;1025;42.686;23.350;2023-06-24T09:29:35;9.57;;;8.80;;
2039;SDS011;1025;42.686;23.350;2023-06-24T09:32:03;10.23;;;9.50;;
2039;SDS011;1025;42.686;23.350;2023-06-24T09:34:31;9.93;;;9.17;;
2039;SDS011;1025;42.686;23.350;2023-06-24T09:36:58;11.97;;;10.40;;
2039;SDS011;1025;42.686;23.350;2023-06-24T09:39:26;10.13;;;9.30;;
2039;SDS011;1025;42.686;23.350;2023-06-24T09:41:54;11.00;;;9.37;;
2039;SDS011;1025;42.686;23.350;2023-06-24T09:44:21;9.57;;;8.87;;
2039;SDS011;1025;42.686;23.350;2023-06-24T09:46:47;10.90;;;9.97;;
2039;SDS011;1025;42.686;23.350;2023-06-24T09:49:14;11.47;;;10.60;;
2039;SDS011;1025;42.686;23.350;2023-06-24T09:51:42;9.50;;;8.57;;
2039;SDS011;1025;42.686;23.350;2023-06-24T09:54:10;9.20;;;8.60;;
2039;SDS011;1025;42.686;23.350;2023-06-24T09:56:38;10.60;;;10.00;;
2039;SDS011;1025;42.686;23.350;2023-06-24T09:59:05;10.80;;;9.80;;
2039;SDS011;1025;42.686;23.350;2023-06-24T10:01:32;10.43;;;9.63;;
2039;SDS011;1025;42.686;23.350;2023-06-24T10:04:01;9.93;;;9.23;;
2039;SDS011;1025;42.686;23.350;2023-06-24T10:06:28;9.73;;;8.93;;
2039;SDS011;1025;42.686;23.350;2023-06-24T10:08:56;9.73;;;9.03;;
2039;SDS011;1025;42.686;23.350;2023-06-24T10:11:23;10.20;;;9.30;;
2039;SDS011;1025;42.686;23.350;2023-06-24T10:13:49;21.80;;;12.27;;
2039;SDS011;1025;42.686;23.350;2023-06-24T10:16:16;12.90;;;10.83;;
2039;SDS011;1025;42.686;23.350;2023-06-24T10:18:43;11.40;;;10.40;;
2039;SDS011;1025;42.686;23.350;2023-06-24T10:21:11;11.40;;;10.37;;
2039;SDS011;1025;42.686;23.350;2023-06-24T10:23:41;13.23;;;9.80;;
2039;SDS011;1025;42.686;23.350;2023-06-24T10:26:10;10.50;;;9.60;;
2039;SDS011;1025;42.686;23.350;2023-06-24T10:31:27;9.37;;;8.47;;
2039;SDS011;1025;42.686;23.350;2023-06-24T10:34:20;9.20;;;8.50;;
2039;SDS011;1025;42.686;23.350;2023-06-24T10:36:52;9.70;;;8.97;;
2039;SDS011;1025;42.686;23.350;2023-06-24T10:44:46;10.00;;;9.10;;
2039;SDS011;1025;42.686;23.350;2023-06-24T10:47:12;8.70;;;8.00;;
2039;SDS011;1025;42.686;23.350;2023-06-24T10:49:39;9.00;;;8.20;;
2039;SDS011;1025;42.686;23.350;2023-06-24T10:52:06;9.40;;;8.50;;
2039;SDS011;1025;42.686;23.350;2023-06-24T10:54:33;8.50;;;7.90;;
2039;SDS011;1025;42.686;23.350;2023-06-24T10:57:00;8.67;;;7.97;;
2039;SDS011;1025;42.686;23.350;2023-06-24T10:59:27;8.30;;;7.60;;
2039;SDS011;1025;42.686;23.350;2023-06-24T11:01:55;9.43;;;7.90;;
2039;SDS011;1025;42.686;23.350;2023-06-24T11:04:21;9.00;;;8.17;;
2039;SDS011;1025;42.686;23.350;2023-06-24T11:06:56;8.17;;;7.50;;
2039;SDS011;1025;42.686;23.350;2023-06-24T11:09:23;7.20;;;6.60;;
2039;SDS011;1025;42.686;23.350;2023-06-24T11:11:49;8.43;;;7.57;;
2039;SDS011;1025;42.686;23.350;2023-06-24T11:14:16;7.73;;;7.03;;
2039;SDS011;1025;42.686;23.350;2023-06-24T11:16:42;7.67;;;6.90;;
2039;SDS011;1025;42.686;23.350;2023-06-24T11:19:10;7.37;;;6.67;;
2039;SDS011;1025;42.686;23.350;2023-06-24T11:21:37;6.90;;;6.30;;
2039;SDS011;1025;42.686;23.350;2023-06-24T11:24:04;7.73;;;7.13;;
2039;SDS011;1025;42.686;23.350;2023-06-24T11:26:30;9.47;;;7.87;;
2039;SDS011;1025;42.686;23.350;2023-06-24T11:28:57;7.73;;;7.10;;
2039;SDS011;1025;42.686;23.350;2023-06-24T11:31:24;6.30;;;5.80;;
2039;SDS011;1025;42.686;23.350;2023-06-24T11:33:51;7.17;;;6.43;;
2039;SDS011;1025;42.686;23.350;2023-06-24T11:36:19;6.90;;;6.40;;
2039;SDS011;1025;42.686;23.350;2023-06-24T11:38:46;8.37;;;6.40;;
2039;SDS011;1025;42.686;23.350;2023-06-24T11:41:12;6.20;;;5.70;;
2039;SDS011;1025;42.686;23.350;2023-06-24T11:43:43;6.93;;;6.33;;
2039;SDS011;1025;42.686;23.350;2023-06-24T11:46:09;6.33;;;5.73;;
2039;SDS011;1025;42.686;23.350;2023-06-24T11:48:39;7.30;;;6.60;;
2039;SDS011;1025;42.686;23.350;2023-06-24T11:51:11;7.33;;;6.50;;
2039;SDS011;1025;42.686;23.350;2023-06-24T11:53:41;7.70;;;7.13;;
2039;SDS011;1025;42.686;23.350;2023-06-24T11:56:08;6.87;;;5.97;;
2039;SDS011;1025;42.686;23.350;2023-06-24T11:58:35;7.90;;;7.13;;
2039;SDS011;1025;42.686;23.350;2023-06-24T12:01:02;9.17;;;7.53;;
2039;SDS011;1025;42.686;23.350;2023-06-24T12:03:28;7.57;;;6.97;;
2039;SDS011;1025;42.686;23.350;2023-06-24T12:05:57;7.33;;;6.80;;
2039;SDS011;1025;42.686;23.350;2023-06-24T12:08:24;7.47;;;6.87;;
2039;SDS011;1025;42.686;23.350;2023-06-24T12:10:52;6.80;;;6.30;;
2039;SDS011;1025;42.686;23.350;2023-06-24T12:13:18;7.73;;;7.10;;
2039;SDS011;1025;42.686;23.350;2023-06-24T12:15:45;8.40;;;7.70;;
2039;SDS011;1025;42.686;23.350;2023-06-24T12:18:12;7.63;;;7.03;;
2039;SDS011;1025;42.686;23.350;2023-06-24T12:20:38;6.90;;;6.50;;
2039;SDS011;1025;42.686;23.350;2023-06-24T12:23:05;7.40;;;6.90;;
2039;SDS011;1025;42.686;23.350;2023-06-24T12:25:31;7.50;;;6.90;;
2039;SDS011;1025;42.686;23.350;2023-06-24T12:27:59;8.20;;;7.47;;
2039;SDS011;1025;42.686;23.350;2023-06-24T12:30:26;9.87;;;7.27;;
2039;SDS011;1025;42.686;23.350;2023-06-24T12:32:52;8.00;;;7.30;;
2039;SDS011;1025;42.686;23.350;2023-06-24T12:35:19;7.70;;;7.20;;
2039;SDS011;1025;42.686;23.350;2023-06-24T12:37:46;7.93;;;7.43;;
2039;SDS011;1025;42.686;23.350;2023-06-24T12:40:13;6.80;;;6.30;;
2039;SDS011;1025;42.686;23.350;2023-06-24T12:42:40;7.60;;;7.10;;
2039;SDS011;1025;42.686;23.350;2023-06-24T12:45:09;6.93;;;6.43;;
2039;SDS011;1025;42.686;23.350;2023-06-24T12:47:36;8.50;;;7.77;;
2039;SDS011;1025;42.686;23.350;2023-06-24T12:50:03;7.97;;;7.47;;
2039;SDS011;1025;42.686;23.350;2023-06-24T12:52:31;8.00;;;7.40;;
2039;SDS011;1025;42.686;23.350;2023-06-24T12:54:58;6.93;;;6.43;;
2039;SDS011;1025;42.686;23.350;2023-06-24T12:57:24;10.13;;;9.10;;
2039;SDS011;1025;42.686;23.350;2023-06-24T12:59:51;6.80;;;6.30;;
2039;SDS011;1025;42.686;23.350;2023-06-24T13:02:19;7.50;;;6.80;;
2039;SDS011;1025;42.686;23.350;2023-06-24T13:04:46;7.90;;;7.13;;
2039;SDS011;1025;42.686;23.350;2023-06-24T13:07:12;13.27;;;9.80;;
2039;SDS011;1025;42.686;23.350;2023-06-24T13:09:39;10.57;;;7.40;;
2039;SDS011;1025;42.686;23.350;2023-06-24T13:12:06;7.67;;;7.07;;
2039;SDS011;1025;42.686;23.350;2023-06-24T13:14:33;9.10;;;8.37;;
2039;SDS011;1025;42.686;23.350;2023-06-24T13:16:59;8.13;;;7.50;;
2039;SDS011;1025;42.686;23.350;2023-06-24T13:19:27;10.17;;;8.77;;
2039;SDS011;1025;42.686;23.350;2023-06-24T13:21:54;7.23;;;6.73;;
2039;SDS011;1025;42.686;23.350;2023-06-24T13:24:20;8.57;;;7.70;;
2039;SDS011;1025;42.686;23.350;2023-06-24T13:26:47;13.07;;;8.40;;
2039;SDS011;1025;42.686;23.350;2023-06-24T13:29:13;8.50;;;6.67;;
2039;SDS011;1025;42.686;23.350;2023-06-24T13:31:40;15.83;;;8.30;;
2039;SDS011;1025;42.686;23.350;2023-06-24T13:34:06;19.57;;;9.67;;
2039;SDS011;1025;42.686;23.350;2023-06-24T13:36:35;17.10;;;9.03;;
2039;SDS011;1025;42.686;23.350;2023-06-24T13:39:02;18.93;;;6.77;;
2039;SDS011;1025;42.686;23.350;2023-06-24T13:41:28;16.80;;;6.53;;
2039;SDS011;1025;42.686;23.350;2023-06-24T13:43:57;36.43;;;9.30;;
2039;SDS011;1025;42.686;23.350;2023-06-24T13:46:23;15.03;;;6.90;;
2039;SDS011;1025;42.686;23.350;2023-06-24T13:48:50;25.13;;;9.37;;
2039;SDS011;1025;42.686;23.350;2023-06-24T13:51:17;18.10;;;7.80;;
2039;SDS011;1025;42.686;23.350;2023-06-24T13:53:45;16.03;;;6.63;;
2039;SDS011;1025;42.686;23.350;2023-06-24T13:56:12;11.10;;;6.90;;
2039;SDS011;1025;42.686;23.350;2023-06-24T13:58:38;11.63;;;6.03;;
2039;SDS011;1025;42.686;23.350;2023-06-24T14:01:05;6.90;;;5.77;;
2039;SDS011;1025;42.686;23.350;2023-06-24T14:03:31;10.43;;;5.53;;
2039;SDS011;1025;42.686;23.350;2023-06-24T14:05:58;11.00;;;7.03;;
2039;SDS011;1025;42.686;23.350;2023-06-24T14:08:26;15.50;;;7.00;;
2039;SDS011;1025;42.686;23.350;2023-06-24T14:10:54;12.80;;;6.97;;
2039;SDS011;1025;42.686;23.350;2023-06-24T14:13:21;11.50;;;6.27;;
2039;SDS011;1025;42.686;23.350;2023-06-24T14:15:48;15.77;;;7.47;;
2039;SDS011;1025;42.686;23.350;2023-06-24T14:18:14;15.10;;;7.83;;
2039;SDS011;1025;42.686;23.350;2023-06-24T14:20:41;10.20;;;8.10;;
2039;SDS011;1025;42.686;23.350;2023-06-24T14:23:07;13.70;;;7.57;;
2039;SDS011;1025;42.686;23.350;2023-06-24T14:25:34;8.87;;;6.97;;
2039;SDS011;1025;42.686;23.350;2023-06-24T14:28:03;8.37;;;7.47;;
2039;SDS011;1025;42.686;23.350;2023-06-24T14:30:30;9.60;;;6.23;;
2039;SDS011;1025;42.686;23.350;2023-06-24T14:32:57;10.67;;;7.20;;
2039;SDS011;1025;42.686;23.350;2023-06-24T14:35:23;10.10;;;5.67;;
2039;SDS011;1025;42.686;23.350;2023-06-24T14:37:50;11.50;;;7.50;;
2039;SDS011;1025;42.686;23.350;2023-06-24T14:40:16;9.03;;;6.67;;
2039;SDS011;1025;42.686;23.350;2023-06-24T14:42:43;8.40;;;6.17;;
2039;SDS011;1025;42.686;23.350;2023-06-24T14:45:11;7.80;;;7.03;;
2039;SDS011;1025;42.686;23.350;2023-06-24T14:47:37;8.10;;;6.43;;
2039;SDS011;1025;42.686;23.350;2023-06-24T14:50:04;7.87;;;6.73;;
2039;SDS011;1025;42.686;23.350;2023-06-24T14:52:31;8.50;;;6.60;;
2039;SDS011;1025;42.686;23.350;2023-06-24T14:54:57;17.20;;;8.63;;